Terminal Aerodrome Forecast
Issued by NWS St Louis, MO

Home | Current Version | Previous Version | Text Only | Print | Product List | Glossary On
Versions: 1 2 3 4 5 6 7 8 9 10 11 12 13 14 15 16 17 18 19 20 21 22 23 24
000
FTUS43 KLSX 080903 AAA
TAFSTL
TAF AMD
KSTL 080903Z 0809/0912 30012KT P6SM SKC
     FM081400 30014G24KT P6SM FEW040 SCT250
     FM090100 30008KT P6SM SCT250=

USA.gov is the U.S. government's official web portal to all federal, state and local government web resources and services.